<?xml version="1.0" encoding="UTF-8" standalone="no" ?>
<gpx xmlns="http://www.topografix.com/GPX/1/1" xmlns:xsi="http://www.w3.org/2001/XMLSchema-instance" xsi:schemaLocation="http://www.topografix.com/GPX/1/1 http://www.topografix.com/GPX/1/1/gpx.xsd" version="1.1" creator="VisuGPX - https://www.visugpx.com">
  <metadata>
    <name>OMS CHENOVE Marche du vendredi 29 mars 2013</name>
    <desc><![CDATA[De l\'observatoire des Hautes Plates au parking de la Combe à la Serpent]]></desc>
  </metadata>
  <trk>
    <name><![CDATA[OMS CHENOVE Marche du vendredi 29 mars 2013_1]]></name>
    <trkseg>
      <trkpt lat="47.30162" lon="4.96098">
        <ele>441.85</ele>
        <time>2013-03-29T09:20:03Z</time>
      </trkpt>
      <trkpt lat="47.30163" lon="4.96098">
        <ele>441.699</ele>
        <time>2013-03-29T09:20:14Z</time>
      </trkpt>
      <trkpt lat="47.30168" lon="4.96102">
        <ele>440.02</ele>
        <time>2013-03-29T09:20:25Z</time>
      </trkpt>
      <trkpt lat="47.30178" lon="4.96107">
        <ele>436.681</ele>
        <time>2013-03-29T09:20:36Z</time>
      </trkpt>
      <trkpt lat="47.3019" lon="4.96115">
        <ele>435.401</ele>
        <time>2013-03-29T09:20:47Z</time>
      </trkpt>
      <trkpt lat="47.30198" lon="4.96122">
        <ele>434.413</ele>
        <time>2013-03-29T09:20:58Z</time>
      </trkpt>
      <trkpt lat="47.3021" lon="4.96115">
        <ele>432.631</ele>
        <time>2013-03-29T09:21:09Z</time>
      </trkpt>
      <trkpt lat="47.30217" lon="4.96107">
        <ele>431.683</ele>
        <time>2013-03-29T09:21:20Z</time>
      </trkpt>
      <trkpt lat="47.30225" lon="4.96095">
        <ele>430.334</ele>
        <time>2013-03-29T09:21:31Z</time>
      </trkpt>
      <trkpt lat="47.3023" lon="4.9608">
        <ele>429.819</ele>
        <time>2013-03-29T09:21:42Z</time>
      </trkpt>
      <trkpt lat="47.3024" lon="4.96065">
        <ele>431.608</ele>
        <time>2013-03-29T09:21:53Z</time>
      </trkpt>
      <trkpt lat="47.30258" lon="4.9606">
        <ele>431.189</ele>
        <time>2013-03-29T09:22:04Z</time>
      </trkpt>
      <trkpt lat="47.30278" lon="4.96057">
        <ele>429.152</ele>
        <time>2013-03-29T09:22:15Z</time>
      </trkpt>
      <trkpt lat="47.30295" lon="4.96055">
        <ele>428.692</ele>
        <time>2013-03-29T09:22:26Z</time>
      </trkpt>
      <trkpt lat="47.30305" lon="4.96057">
        <ele>428.232</ele>
        <time>2013-03-29T09:22:37Z</time>
      </trkpt>
      <trkpt lat="47.30318" lon="4.96072">
        <ele>426.303</ele>
        <time>2013-03-29T09:22:48Z</time>
      </trkpt>
      <trkpt lat="47.30332" lon="4.9609">
        <ele>425.248</ele>
        <time>2013-03-29T09:22:59Z</time>
      </trkpt>
      <trkpt lat="47.30345" lon="4.9611">
        <ele>422.922</ele>
        <time>2013-03-29T09:23:10Z</time>
      </trkpt>
      <trkpt lat="47.30353" lon="4.9613">
        <ele>425.013</ele>
        <time>2013-03-29T09:23:21Z</time>
      </trkpt>
      <trkpt lat="47.3036" lon="4.96142">
        <ele>425.421</ele>
        <time>2013-03-29T09:23:32Z</time>
      </trkpt>
      <trkpt lat="47.30367" lon="4.96153">
        <ele>427.313</ele>
        <time>2013-03-29T09:23:43Z</time>
      </trkpt>
      <trkpt lat="47.3038" lon="4.96153">
        <ele>427.521</ele>
        <time>2013-03-29T09:23:54Z</time>
      </trkpt>
      <trkpt lat="47.30392" lon="4.96153">
        <ele>427.217</ele>
        <time>2013-03-29T09:24:05Z</time>
      </trkpt>
      <trkpt lat="47.30397" lon="4.96147">
        <ele>427.864</ele>
        <time>2013-03-29T09:24:16Z</time>
      </trkpt>
      <trkpt lat="47.30407" lon="4.9614">
        <ele>429.396</ele>
        <time>2013-03-29T09:24:27Z</time>
      </trkpt>
      <trkpt lat="47.30415" lon="4.96135">
        <ele>430.382</ele>
        <time>2013-03-29T09:24:38Z</time>
      </trkpt>
      <trkpt lat="47.30422" lon="4.96137">
        <ele>428.783</ele>
        <time>2013-03-29T09:24:49Z</time>
      </trkpt>
      <trkpt lat="47.30433" lon="4.96142">
        <ele>427.927</ele>
        <time>2013-03-29T09:25:00Z</time>
      </trkpt>
      <trkpt lat="47.30448" lon="4.96153">
        <ele>427.293</ele>
        <time>2013-03-29T09:25:11Z</time>
      </trkpt>
      <trkpt lat="47.30463" lon="4.96163">
        <ele>427.201</ele>
        <time>2013-03-29T09:25:22Z</time>
      </trkpt>
      <trkpt lat="47.3047" lon="4.96165">
        <ele>429.363</ele>
        <time>2013-03-29T09:25:33Z</time>
      </trkpt>
      <trkpt lat="47.30478" lon="4.96165">
        <ele>428.911</ele>
        <time>2013-03-29T09:25:44Z</time>
      </trkpt>
      <trkpt lat="47.30485" lon="4.96163">
        <ele>426.862</ele>
        <time>2013-03-29T09:25:55Z</time>
      </trkpt>
      <trkpt lat="47.30495" lon="4.9616">
        <ele>427.562</ele>
        <time>2013-03-29T09:26:06Z</time>
      </trkpt>
      <trkpt lat="47.30507" lon="4.96155">
        <ele>426.219</ele>
        <time>2013-03-29T09:26:17Z</time>
      </trkpt>
      <trkpt lat="47.30518" lon="4.96157">
        <ele>427.302</ele>
        <time>2013-03-29T09:26:28Z</time>
      </trkpt>
      <trkpt lat="47.3053" lon="4.96162">
        <ele>425.018</ele>
        <time>2013-03-29T09:26:39Z</time>
      </trkpt>
      <trkpt lat="47.3055" lon="4.96168">
        <ele>419.238</ele>
        <time>2013-03-29T09:26:50Z</time>
      </trkpt>
      <trkpt lat="47.30575" lon="4.96163">
        <ele>410.414</ele>
        <time>2013-03-29T09:27:01Z</time>
      </trkpt>
      <trkpt lat="47.30593" lon="4.96167">
        <ele>406.1</ele>
        <time>2013-03-29T09:27:12Z</time>
      </trkpt>
      <trkpt lat="47.30598" lon="4.96187">
        <ele>403.322</ele>
        <time>2013-03-29T09:27:23Z</time>
      </trkpt>
      <trkpt lat="47.3061" lon="4.96195">
        <ele>399.093</ele>
        <time>2013-03-29T09:27:34Z</time>
      </trkpt>
      <trkpt lat="47.30613" lon="4.96188">
        <ele>398.365</ele>
        <time>2013-03-29T09:27:45Z</time>
      </trkpt>
      <trkpt lat="47.30623" lon="4.96172">
        <ele>397.898</ele>
        <time>2013-03-29T09:27:56Z</time>
      </trkpt>
      <trkpt lat="47.3063" lon="4.96155">
        <ele>399.432</ele>
        <time>2013-03-29T09:28:07Z</time>
      </trkpt>
      <trkpt lat="47.30637" lon="4.96142">
        <ele>399.299</ele>
        <time>2013-03-29T09:28:18Z</time>
      </trkpt>
      <trkpt lat="47.30637" lon="4.96125">
        <ele>398.809</ele>
        <time>2013-03-29T09:28:29Z</time>
      </trkpt>
      <trkpt lat="47.30643" lon="4.96108">
        <ele>397.555</ele>
        <time>2013-03-29T09:28:40Z</time>
      </trkpt>
      <trkpt lat="47.30647" lon="4.96088">
        <ele>396.036</ele>
        <time>2013-03-29T09:28:51Z</time>
      </trkpt>
      <trkpt lat="47.30647" lon="4.96062">
        <ele>394.22</ele>
        <time>2013-03-29T09:29:02Z</time>
      </trkpt>
      <trkpt lat="47.3065" lon="4.96048">
        <ele>392.465</ele>
        <time>2013-03-29T09:29:13Z</time>
      </trkpt>
      <trkpt lat="47.30655" lon="4.96037">
        <ele>389.137</ele>
        <time>2013-03-29T09:29:24Z</time>
      </trkpt>
      <trkpt lat="47.3066" lon="4.95998">
        <ele>390.386</ele>
        <time>2013-03-29T09:29:35Z</time>
      </trkpt>
      <trkpt lat="47.3065" lon="4.95988">
        <ele>386.699</ele>
        <time>2013-03-29T09:29:46Z</time>
      </trkpt>
      <trkpt lat="47.30632" lon="4.95987">
        <ele>386.408</ele>
        <time>2013-03-29T09:29:57Z</time>
      </trkpt>
      <trkpt lat="47.30622" lon="4.95967">
        <ele>384.028</ele>
        <time>2013-03-29T09:30:08Z</time>
      </trkpt>
      <trkpt lat="47.30632" lon="4.9593">
        <ele>388.498</ele>
        <time>2013-03-29T09:30:19Z</time>
      </trkpt>
      <trkpt lat="47.30637" lon="4.95902">
        <ele>392.132</ele>
        <time>2013-03-29T09:30:30Z</time>
      </trkpt>
      <trkpt lat="47.30628" lon="4.95872">
        <ele>390.162</ele>
        <time>2013-03-29T09:30:41Z</time>
      </trkpt>
      <trkpt lat="47.30622" lon="4.95853">
        <ele>391.956</ele>
        <time>2013-03-29T09:30:52Z</time>
      </trkpt>
      <trkpt lat="47.3061" lon="4.95832">
        <ele>393.678</ele>
        <time>2013-03-29T09:31:03Z</time>
      </trkpt>
      <trkpt lat="47.30593" lon="4.95822">
        <ele>393.159</ele>
        <time>2013-03-29T09:31:14Z</time>
      </trkpt>
      <trkpt lat="47.30578" lon="4.95815">
        <ele>395.91</ele>
        <time>2013-03-29T09:31:25Z</time>
      </trkpt>
      <trkpt lat="47.30568" lon="4.95805">
        <ele>396.758</ele>
        <time>2013-03-29T09:31:36Z</time>
      </trkpt>
      <trkpt lat="47.30558" lon="4.95793">
        <ele>398.509</ele>
        <time>2013-03-29T09:31:47Z</time>
      </trkpt>
      <trkpt lat="47.30552" lon="4.9578">
        <ele>399.047</ele>
        <time>2013-03-29T09:31:58Z</time>
      </trkpt>
      <trkpt lat="47.30538" lon="4.95775">
        <ele>403.288</ele>
        <time>2013-03-29T09:32:09Z</time>
      </trkpt>
      <trkpt lat="47.30518" lon="4.95765">
        <ele>403.457</ele>
        <time>2013-03-29T09:32:20Z</time>
      </trkpt>
      <trkpt lat="47.305" lon="4.95762">
        <ele>406.034</ele>
        <time>2013-03-29T09:32:31Z</time>
      </trkpt>
      <trkpt lat="47.30488" lon="4.95755">
        <ele>406.922</ele>
        <time>2013-03-29T09:32:42Z</time>
      </trkpt>
      <trkpt lat="47.30468" lon="4.9575">
        <ele>406.34</ele>
        <time>2013-03-29T09:32:53Z</time>
      </trkpt>
      <trkpt lat="47.30455" lon="4.95743">
        <ele>406.953</ele>
        <time>2013-03-29T09:33:04Z</time>
      </trkpt>
      <trkpt lat="47.3044" lon="4.95723">
        <ele>405.449</ele>
        <time>2013-03-29T09:33:15Z</time>
      </trkpt>
      <trkpt lat="47.30427" lon="4.95715">
        <ele>407.548</ele>
        <time>2013-03-29T09:33:26Z</time>
      </trkpt>
      <trkpt lat="47.30417" lon="4.95698">
        <ele>409.344</ele>
        <time>2013-03-29T09:33:37Z</time>
      </trkpt>
      <trkpt lat="47.30402" lon="4.9568">
        <ele>409.676</ele>
        <time>2013-03-29T09:33:48Z</time>
      </trkpt>
      <trkpt lat="47.3039" lon="4.95657">
        <ele>410.094</ele>
        <time>2013-03-29T09:33:59Z</time>
      </trkpt>
      <trkpt lat="47.3038" lon="4.95642">
        <ele>409.536</ele>
        <time>2013-03-29T09:34:10Z</time>
      </trkpt>
      <trkpt lat="47.30363" lon="4.95627">
        <ele>407.353</ele>
        <time>2013-03-29T09:34:21Z</time>
      </trkpt>
      <trkpt lat="47.30353" lon="4.95615">
        <ele>409.462</ele>
        <time>2013-03-29T09:34:32Z</time>
      </trkpt>
      <trkpt lat="47.30352" lon="4.95588">
        <ele>406.798</ele>
        <time>2013-03-29T09:34:43Z</time>
      </trkpt>
      <trkpt lat="47.30343" lon="4.95565">
        <ele>406.055</ele>
        <time>2013-03-29T09:34:54Z</time>
      </trkpt>
      <trkpt lat="47.30337" lon="4.95533">
        <ele>405.14</ele>
        <time>2013-03-29T09:35:05Z</time>
      </trkpt>
      <trkpt lat="47.3033" lon="4.95508">
        <ele>404.108</ele>
        <time>2013-03-29T09:35:16Z</time>
      </trkpt>
      <trkpt lat="47.3032" lon="4.95492">
        <ele>402.058</ele>
        <time>2013-03-29T09:35:27Z</time>
      </trkpt>
      <trkpt lat="47.30305" lon="4.95475">
        <ele>402.428</ele>
        <time>2013-03-29T09:35:38Z</time>
      </trkpt>
      <trkpt lat="47.30303" lon="4.95455">
        <ele>401.856</ele>
        <time>2013-03-29T09:35:49Z</time>
      </trkpt>
      <trkpt lat="47.30293" lon="4.95427">
        <ele>403.494</ele>
        <time>2013-03-29T09:36:00Z</time>
      </trkpt>
      <trkpt lat="47.30283" lon="4.95412">
        <ele>404.447</ele>
        <time>2013-03-29T09:36:11Z</time>
      </trkpt>
      <trkpt lat="47.30282" lon="4.95387">
        <ele>405.441</ele>
        <time>2013-03-29T09:36:22Z</time>
      </trkpt>
      <trkpt lat="47.30268" lon="4.95375">
        <ele>407.367</ele>
        <time>2013-03-29T09:36:33Z</time>
      </trkpt>
      <trkpt lat="47.30265" lon="4.95363">
        <ele>409.879</ele>
        <time>2013-03-29T09:36:44Z</time>
      </trkpt>
      <trkpt lat="47.30257" lon="4.9534">
        <ele>409.392</ele>
        <time>2013-03-29T09:36:55Z</time>
      </trkpt>
      <trkpt lat="47.3025" lon="4.95308">
        <ele>410.717</ele>
        <time>2013-03-29T09:37:06Z</time>
      </trkpt>
      <trkpt lat="47.30237" lon="4.95295">
        <ele>412.946</ele>
        <time>2013-03-29T09:37:17Z</time>
      </trkpt>
      <trkpt lat="47.30238" lon="4.95273">
        <ele>412.899</ele>
        <time>2013-03-29T09:37:28Z</time>
      </trkpt>
      <trkpt lat="47.30237" lon="4.95257">
        <ele>415.262</ele>
        <time>2013-03-29T09:37:39Z</time>
      </trkpt>
      <trkpt lat="47.30225" lon="4.95232">
        <ele>419.105</ele>
        <time>2013-03-29T09:37:50Z</time>
      </trkpt>
      <trkpt lat="47.30208" lon="4.95213">
        <ele>419.816</ele>
        <time>2013-03-29T09:38:01Z</time>
      </trkpt>
      <trkpt lat="47.30208" lon="4.95192">
        <ele>422.893</ele>
        <time>2013-03-29T09:38:12Z</time>
      </trkpt>
      <trkpt lat="47.30207" lon="4.95182">
        <ele>421.959</ele>
        <time>2013-03-29T09:38:23Z</time>
      </trkpt>
      <trkpt lat="47.302" lon="4.95147">
        <ele>423.826</ele>
        <time>2013-03-29T09:38:34Z</time>
      </trkpt>
      <trkpt lat="47.30198" lon="4.95122">
        <ele>424.404</ele>
        <time>2013-03-29T09:38:45Z</time>
      </trkpt>
      <trkpt lat="47.30197" lon="4.95098">
        <ele>425.651</ele>
        <time>2013-03-29T09:38:56Z</time>
      </trkpt>
      <trkpt lat="47.30188" lon="4.95073">
        <ele>426.93</ele>
        <time>2013-03-29T09:39:07Z</time>
      </trkpt>
      <trkpt lat="47.30183" lon="4.95063">
        <ele>429.848</ele>
        <time>2013-03-29T09:39:18Z</time>
      </trkpt>
      <trkpt lat="47.30173" lon="4.95048">
        <ele>431.351</ele>
        <time>2013-03-29T09:39:29Z</time>
      </trkpt>
      <trkpt lat="47.30165" lon="4.95035">
        <ele>431.318</ele>
        <time>2013-03-29T09:39:40Z</time>
      </trkpt>
      <trkpt lat="47.30163" lon="4.9502">
        <ele>433.251</ele>
        <time>2013-03-29T09:39:51Z</time>
      </trkpt>
      <trkpt lat="47.30155" lon="4.95012">
        <ele>434.056</ele>
        <time>2013-03-29T09:40:02Z</time>
      </trkpt>
      <trkpt lat="47.30153" lon="4.95005">
        <ele>434.442</ele>
        <time>2013-03-29T09:40:13Z</time>
      </trkpt>
      <trkpt lat="47.30143" lon="4.9499">
        <ele>435.697</ele>
        <time>2013-03-29T09:40:24Z</time>
      </trkpt>
      <trkpt lat="47.30132" lon="4.94977">
        <ele>433.652</ele>
        <time>2013-03-29T09:40:35Z</time>
      </trkpt>
      <trkpt lat="47.30118" lon="4.9496">
        <ele>431.057</ele>
        <time>2013-03-29T09:40:46Z</time>
      </trkpt>
      <trkpt lat="47.30115" lon="4.94948">
        <ele>432.141</ele>
        <time>2013-03-29T09:40:57Z</time>
      </trkpt>
      <trkpt lat="47.30107" lon="4.94923">
        <ele>433.499</ele>
        <time>2013-03-29T09:41:08Z</time>
      </trkpt>
      <trkpt lat="47.30095" lon="4.9491">
        <ele>432.583</ele>
        <time>2013-03-29T09:41:19Z</time>
      </trkpt>
      <trkpt lat="47.30097" lon="4.94887">
        <ele>427.822</ele>
        <time>2013-03-29T09:41:30Z</time>
      </trkpt>
      <trkpt lat="47.301" lon="4.9487">
        <ele>424.301</ele>
        <time>2013-03-29T09:41:41Z</time>
      </trkpt>
      <trkpt lat="47.3011" lon="4.94853">
        <ele>424.629</ele>
        <time>2013-03-29T09:41:52Z</time>
      </trkpt>
      <trkpt lat="47.30122" lon="4.94838">
        <ele>426.587</ele>
        <time>2013-03-29T09:42:03Z</time>
      </trkpt>
      <trkpt lat="47.30132" lon="4.94843">
        <ele>426.834</ele>
        <time>2013-03-29T09:42:14Z</time>
      </trkpt>
      <trkpt lat="47.30137" lon="4.94843">
        <ele>429.501</ele>
        <time>2013-03-29T09:42:25Z</time>
      </trkpt>
      <trkpt lat="47.3015" lon="4.94848">
        <ele>432.86</ele>
        <time>2013-03-29T09:42:36Z</time>
      </trkpt>
      <trkpt lat="47.30162" lon="4.94858">
        <ele>433.241</ele>
        <time>2013-03-29T09:42:47Z</time>
      </trkpt>
      <trkpt lat="47.30172" lon="4.94867">
        <ele>433.971</ele>
        <time>2013-03-29T09:42:58Z</time>
      </trkpt>
      <trkpt lat="47.30183" lon="4.9488">
        <ele>434.905</ele>
        <time>2013-03-29T09:43:09Z</time>
      </trkpt>
      <trkpt lat="47.3019" lon="4.94888">
        <ele>434.148</ele>
        <time>2013-03-29T09:43:20Z</time>
      </trkpt>
      <trkpt lat="47.30198" lon="4.94908">
        <ele>433.799</ele>
        <time>2013-03-29T09:43:31Z</time>
      </trkpt>
      <trkpt lat="47.3021" lon="4.94937">
        <ele>434.396</ele>
        <time>2013-03-29T09:43:42Z</time>
      </trkpt>
      <trkpt lat="47.3022" lon="4.94963">
        <ele>435.941</ele>
        <time>2013-03-29T09:43:53Z</time>
      </trkpt>
      <trkpt lat="47.30228" lon="4.94977">
        <ele>438.027</ele>
        <time>2013-03-29T09:44:04Z</time>
      </trkpt>
      <trkpt lat="47.30237" lon="4.94985">
        <ele>437.3</ele>
        <time>2013-03-29T09:44:15Z</time>
      </trkpt>
      <trkpt lat="47.30247" lon="4.94997">
        <ele>437.446</ele>
        <time>2013-03-29T09:44:26Z</time>
      </trkpt>
      <trkpt lat="47.30257" lon="4.95013">
        <ele>436.747</ele>
        <time>2013-03-29T09:44:37Z</time>
      </trkpt>
      <trkpt lat="47.3027" lon="4.95032">
        <ele>436.205</ele>
        <time>2013-03-29T09:44:48Z</time>
      </trkpt>
      <trkpt lat="47.3028" lon="4.9505">
        <ele>435.362</ele>
        <time>2013-03-29T09:44:59Z</time>
      </trkpt>
      <trkpt lat="47.3029" lon="4.95068">
        <ele>437.698</ele>
        <time>2013-03-29T09:45:10Z</time>
      </trkpt>
      <trkpt lat="47.30297" lon="4.95072">
        <ele>434.828</ele>
        <time>2013-03-29T09:45:21Z</time>
      </trkpt>
      <trkpt lat="47.303" lon="4.95085">
        <ele>434.576</ele>
        <time>2013-03-29T09:45:32Z</time>
      </trkpt>
      <trkpt lat="47.30312" lon="4.95077">
        <ele>435.293</ele>
        <time>2013-03-29T09:45:43Z</time>
      </trkpt>
      <trkpt lat="47.30327" lon="4.95065">
        <ele>436.398</ele>
        <time>2013-03-29T09:45:54Z</time>
      </trkpt>
      <trkpt lat="47.30345" lon="4.9506">
        <ele>434.833</ele>
        <time>2013-03-29T09:46:05Z</time>
      </trkpt>
      <trkpt lat="47.3036" lon="4.9507">
        <ele>435.686</ele>
        <time>2013-03-29T09:46:16Z</time>
      </trkpt>
      <trkpt lat="47.30372" lon="4.95087">
        <ele>435.384</ele>
        <time>2013-03-29T09:46:27Z</time>
      </trkpt>
      <trkpt lat="47.30385" lon="4.951">
        <ele>435.241</ele>
        <time>2013-03-29T09:46:38Z</time>
      </trkpt>
      <trkpt lat="47.30395" lon="4.95112">
        <ele>439.712</ele>
        <time>2013-03-29T09:46:49Z</time>
      </trkpt>
      <trkpt lat="47.30408" lon="4.95125">
        <ele>438.88</ele>
        <time>2013-03-29T09:47:00Z</time>
      </trkpt>
      <trkpt lat="47.30418" lon="4.95138">
        <ele>436.592</ele>
        <time>2013-03-29T09:47:11Z</time>
      </trkpt>
      <trkpt lat="47.30425" lon="4.95157">
        <ele>437.374</ele>
        <time>2013-03-29T09:47:22Z</time>
      </trkpt>
      <trkpt lat="47.30433" lon="4.95182">
        <ele>436.955</ele>
        <time>2013-03-29T09:47:33Z</time>
      </trkpt>
      <trkpt lat="47.30443" lon="4.95193">
        <ele>439.687</ele>
        <time>2013-03-29T09:47:44Z</time>
      </trkpt>
      <trkpt lat="47.30455" lon="4.95212">
        <ele>440.313</ele>
        <time>2013-03-29T09:47:55Z</time>
      </trkpt>
      <trkpt lat="47.30472" lon="4.95228">
        <ele>440.217</ele>
        <time>2013-03-29T09:48:06Z</time>
      </trkpt>
      <trkpt lat="47.30475" lon="4.9523">
        <ele>440.151</ele>
        <time>2013-03-29T09:48:17Z</time>
      </trkpt>
      <trkpt lat="47.3048" lon="4.95228">
        <ele>441.133</ele>
        <time>2013-03-29T09:48:28Z</time>
      </trkpt>
      <trkpt lat="47.30488" lon="4.95233">
        <ele>441.454</ele>
        <time>2013-03-29T09:48:39Z</time>
      </trkpt>
      <trkpt lat="47.30502" lon="4.9524">
        <ele>441.916</ele>
        <time>2013-03-29T09:48:50Z</time>
      </trkpt>
      <trkpt lat="47.3051" lon="4.95248">
        <ele>441.723</ele>
        <time>2013-03-29T09:49:01Z</time>
      </trkpt>
      <trkpt lat="47.3053" lon="4.95253">
        <ele>444.164</ele>
        <time>2013-03-29T09:49:12Z</time>
      </trkpt>
      <trkpt lat="47.30542" lon="4.95248">
        <ele>444.944</ele>
        <time>2013-03-29T09:49:23Z</time>
      </trkpt>
      <trkpt lat="47.30543" lon="4.95248">
        <ele>445.337</ele>
        <time>2013-03-29T09:49:34Z</time>
      </trkpt>
      <trkpt lat="47.30545" lon="4.95248">
        <ele>445.287</ele>
        <time>2013-03-29T09:49:45Z</time>
      </trkpt>
      <trkpt lat="47.30547" lon="4.9525">
        <ele>444.665</ele>
        <time>2013-03-29T09:49:56Z</time>
      </trkpt>
      <trkpt lat="47.30547" lon="4.95248">
        <ele>444.893</ele>
        <time>2013-03-29T09:50:07Z</time>
      </trkpt>
      <trkpt lat="47.30547" lon="4.9525">
        <ele>444.86</ele>
        <time>2013-03-29T09:50:18Z</time>
      </trkpt>
      <trkpt lat="47.30547" lon="4.9525">
        <ele>444.86</ele>
        <time>2013-03-29T09:50:29Z</time>
      </trkpt>
      <trkpt lat="47.30548" lon="4.95248">
        <ele>444.767</ele>
        <time>2013-03-29T09:50:40Z</time>
      </trkpt>
      <trkpt lat="47.30548" lon="4.95248">
        <ele>444.479</ele>
        <time>2013-03-29T09:50:51Z</time>
      </trkpt>
      <trkpt lat="47.30562" lon="4.95255">
        <ele>446.707</ele>
        <time>2013-03-29T09:51:02Z</time>
      </trkpt>
      <trkpt lat="47.30575" lon="4.95263">
        <ele>447.475</ele>
        <time>2013-03-29T09:51:13Z</time>
      </trkpt>
      <trkpt lat="47.30585" lon="4.9527">
        <ele>446.954</ele>
        <time>2013-03-29T09:51:24Z</time>
      </trkpt>
      <trkpt lat="47.30593" lon="4.95277">
        <ele>448.331</ele>
        <time>2013-03-29T09:51:35Z</time>
      </trkpt>
      <trkpt lat="47.30605" lon="4.95287">
        <ele>447.893</ele>
        <time>2013-03-29T09:51:46Z</time>
      </trkpt>
      <trkpt lat="47.30615" lon="4.95305">
        <ele>451.815</ele>
        <time>2013-03-29T09:51:57Z</time>
      </trkpt>
      <trkpt lat="47.30625" lon="4.9532">
        <ele>452.827</ele>
        <time>2013-03-29T09:52:08Z</time>
      </trkpt>
      <trkpt lat="47.3064" lon="4.95333">
        <ele>452.647</ele>
        <time>2013-03-29T09:52:19Z</time>
      </trkpt>
      <trkpt lat="47.30652" lon="4.95342">
        <ele>451.811</ele>
        <time>2013-03-29T09:52:30Z</time>
      </trkpt>
      <trkpt lat="47.30662" lon="4.95363">
        <ele>448.555</ele>
        <time>2013-03-29T09:52:41Z</time>
      </trkpt>
      <trkpt lat="47.30667" lon="4.9538">
        <ele>447.615</ele>
        <time>2013-03-29T09:52:52Z</time>
      </trkpt>
      <trkpt lat="47.30675" lon="4.95412">
        <ele>441.286</ele>
        <time>2013-03-29T09:53:03Z</time>
      </trkpt>
      <trkpt lat="47.3068" lon="4.95442">
        <ele>435.135</ele>
        <time>2013-03-29T09:53:14Z</time>
      </trkpt>
      <trkpt lat="47.30677" lon="4.9546">
        <ele>434.437</ele>
        <time>2013-03-29T09:53:25Z</time>
      </trkpt>
      <trkpt lat="47.30673" lon="4.95487">
        <ele>433.972</ele>
        <time>2013-03-29T09:53:36Z</time>
      </trkpt>
      <trkpt lat="47.30668" lon="4.95508">
        <ele>433.311</ele>
        <time>2013-03-29T09:53:47Z</time>
      </trkpt>
      <trkpt lat="47.30668" lon="4.95537">
        <ele>434.674</ele>
        <time>2013-03-29T09:53:58Z</time>
      </trkpt>
      <trkpt lat="47.30668" lon="4.95562">
        <ele>435.338</ele>
        <time>2013-03-29T09:54:09Z</time>
      </trkpt>
      <trkpt lat="47.30665" lon="4.95593">
        <ele>434.881</ele>
        <time>2013-03-29T09:54:20Z</time>
      </trkpt>
      <trkpt lat="47.3066" lon="4.9562">
        <ele>433.847</ele>
        <time>2013-03-29T09:54:31Z</time>
      </trkpt>
      <trkpt lat="47.30652" lon="4.95642">
        <ele>433.294</ele>
        <time>2013-03-29T09:54:42Z</time>
      </trkpt>
      <trkpt lat="47.30645" lon="4.95655">
        <ele>432.479</ele>
        <time>2013-03-29T09:54:53Z</time>
      </trkpt>
      <trkpt lat="47.30642" lon="4.95673">
        <ele>433.168</ele>
        <time>2013-03-29T09:55:04Z</time>
      </trkpt>
      <trkpt lat="47.3064" lon="4.9569">
        <ele>431.933</ele>
        <time>2013-03-29T09:55:15Z</time>
      </trkpt>
      <trkpt lat="47.30638" lon="4.95702">
        <ele>428.79</ele>
        <time>2013-03-29T09:55:26Z</time>
      </trkpt>
      <trkpt lat="47.30642" lon="4.95717">
        <ele>425.754</ele>
        <time>2013-03-29T09:55:37Z</time>
      </trkpt>
      <trkpt lat="47.30647" lon="4.9573">
        <ele>422.813</ele>
        <time>2013-03-29T09:55:48Z</time>
      </trkpt>
      <trkpt lat="47.3066" lon="4.95747">
        <ele>420.515</ele>
        <time>2013-03-29T09:55:59Z</time>
      </trkpt>
      <trkpt lat="47.30678" lon="4.9576">
        <ele>417.576</ele>
        <time>2013-03-29T09:56:10Z</time>
      </trkpt>
      <trkpt lat="47.30692" lon="4.95777">
        <ele>418.561</ele>
        <time>2013-03-29T09:56:21Z</time>
      </trkpt>
      <trkpt lat="47.307" lon="4.95783">
        <ele>416.822</ele>
        <time>2013-03-29T09:56:32Z</time>
      </trkpt>
      <trkpt lat="47.30712" lon="4.9579">
        <ele>416.987</ele>
        <time>2013-03-29T09:56:43Z</time>
      </trkpt>
      <trkpt lat="47.3072" lon="4.95793">
        <ele>418.88</ele>
        <time>2013-03-29T09:56:54Z</time>
      </trkpt>
      <trkpt lat="47.30733" lon="4.95795">
        <ele>419.48</ele>
        <time>2013-03-29T09:57:05Z</time>
      </trkpt>
      <trkpt lat="47.30745" lon="4.95798">
        <ele>418.856</ele>
        <time>2013-03-29T09:57:16Z</time>
      </trkpt>
      <trkpt lat="47.3076" lon="4.95808">
        <ele>418.013</ele>
        <time>2013-03-29T09:57:27Z</time>
      </trkpt>
      <trkpt lat="47.3078" lon="4.95823">
        <ele>417.002</ele>
        <time>2013-03-29T09:57:38Z</time>
      </trkpt>
      <trkpt lat="47.30798" lon="4.95828">
        <ele>418.99</ele>
        <time>2013-03-29T09:57:49Z</time>
      </trkpt>
      <trkpt lat="47.30815" lon="4.95832">
        <ele>419.464</ele>
        <time>2013-03-29T09:58:00Z</time>
      </trkpt>
      <trkpt lat="47.30835" lon="4.95833">
        <ele>418.884</ele>
        <time>2013-03-29T09:58:11Z</time>
      </trkpt>
      <trkpt lat="47.30847" lon="4.9584">
        <ele>417.38</ele>
        <time>2013-03-29T09:58:22Z</time>
      </trkpt>
      <trkpt lat="47.30863" lon="4.95848">
        <ele>416.148</ele>
        <time>2013-03-29T09:58:33Z</time>
      </trkpt>
      <trkpt lat="47.30885" lon="4.95867">
        <ele>419.447</ele>
        <time>2013-03-29T09:58:44Z</time>
      </trkpt>
      <trkpt lat="47.30897" lon="4.9588">
        <ele>418.143</ele>
        <time>2013-03-29T09:58:55Z</time>
      </trkpt>
      <trkpt lat="47.30907" lon="4.95892">
        <ele>417.264</ele>
        <time>2013-03-29T09:59:06Z</time>
      </trkpt>
      <trkpt lat="47.30915" lon="4.95908">
        <ele>417.414</ele>
        <time>2013-03-29T09:59:17Z</time>
      </trkpt>
      <trkpt lat="47.30928" lon="4.95918">
        <ele>414.935</ele>
        <time>2013-03-29T09:59:28Z</time>
      </trkpt>
      <trkpt lat="47.30945" lon="4.95938">
        <ele>406.458</ele>
        <time>2013-03-29T09:59:39Z</time>
      </trkpt>
      <trkpt lat="47.3095" lon="4.95952">
        <ele>403.798</ele>
        <time>2013-03-29T09:59:50Z</time>
      </trkpt>
      <trkpt lat="47.30955" lon="4.95958">
        <ele>403.48</ele>
        <time>2013-03-29T10:00:01Z</time>
      </trkpt>
      <trkpt lat="47.30958" lon="4.95963">
        <ele>401.553</ele>
        <time>2013-03-29T10:00:12Z</time>
      </trkpt>
      <trkpt lat="47.30968" lon="4.95977">
        <ele>397.643</ele>
        <time>2013-03-29T10:00:23Z</time>
      </trkpt>
      <trkpt lat="47.30972" lon="4.95987">
        <ele>393.55</ele>
        <time>2013-03-29T10:00:34Z</time>
      </trkpt>
      <trkpt lat="47.30977" lon="4.96003">
        <ele>391.002</ele>
        <time>2013-03-29T10:00:45Z</time>
      </trkpt>
      <trkpt lat="47.3098" lon="4.96012">
        <ele>389.289</ele>
        <time>2013-03-29T10:00:56Z</time>
      </trkpt>
      <trkpt lat="47.30987" lon="4.96025">
        <ele>388.419</ele>
        <time>2013-03-29T10:01:07Z</time>
      </trkpt>
      <trkpt lat="47.30988" lon="4.96047">
        <ele>382.75</ele>
        <time>2013-03-29T10:01:18Z</time>
      </trkpt>
      <trkpt lat="47.30992" lon="4.96053">
        <ele>380.71</ele>
        <time>2013-03-29T10:01:29Z</time>
      </trkpt>
      <trkpt lat="47.30997" lon="4.9606">
        <ele>379.626</ele>
        <time>2013-03-29T10:01:40Z</time>
      </trkpt>
      <trkpt lat="47.31005" lon="4.96072">
        <ele>375.605</ele>
        <time>2013-03-29T10:01:51Z</time>
      </trkpt>
      <trkpt lat="47.31008" lon="4.96088">
        <ele>371.536</ele>
        <time>2013-03-29T10:02:02Z</time>
      </trkpt>
      <trkpt lat="47.31013" lon="4.96108">
        <ele>367.232</ele>
        <time>2013-03-29T10:02:13Z</time>
      </trkpt>
      <trkpt lat="47.31017" lon="4.9612">
        <ele>363.837</ele>
        <time>2013-03-29T10:02:24Z</time>
      </trkpt>
      <trkpt lat="47.31018" lon="4.9613">
        <ele>362.619</ele>
        <time>2013-03-29T10:02:35Z</time>
      </trkpt>
      <trkpt lat="47.31022" lon="4.96138">
        <ele>361.419</ele>
        <time>2013-03-29T10:02:46Z</time>
      </trkpt>
      <trkpt lat="47.31027" lon="4.96152">
        <ele>360.5</ele>
        <time>2013-03-29T10:02:57Z</time>
      </trkpt>
      <trkpt lat="47.31027" lon="4.96152">
        <ele>360.536</ele>
        <time>2013-03-29T10:03:08Z</time>
      </trkpt>
      <trkpt lat="47.31027" lon="4.96153">
        <ele>360.725</ele>
        <time>2013-03-29T10:03:19Z</time>
      </trkpt>
      <trkpt lat="47.31027" lon="4.96153">
        <ele>360.725</ele>
        <time>2013-03-29T10:03:30Z</time>
      </trkpt>
      <trkpt lat="47.31027" lon="4.96155">
        <ele>360.283</ele>
        <time>2013-03-29T10:03:41Z</time>
      </trkpt>
      <trkpt lat="47.31027" lon="4.96155">
        <ele>360.283</ele>
        <time>2013-03-29T10:03:52Z</time>
      </trkpt>
      <trkpt lat="47.31028" lon="4.96155">
        <ele>360.227</ele>
        <time>2013-03-29T10:04:03Z</time>
      </trkpt>
      <trkpt lat="47.31028" lon="4.96155">
        <ele>359.899</ele>
        <time>2013-03-29T10:04:14Z</time>
      </trkpt>
      <trkpt lat="47.31028" lon="4.96155">
        <ele>359.899</ele>
        <time>2013-03-29T10:04:25Z</time>
      </trkpt>
      <trkpt lat="47.31028" lon="4.96155">
        <ele>359.899</ele>
        <time>2013-03-29T10:04:36Z</time>
      </trkpt>
      <trkpt lat="47.31028" lon="4.96155">
        <ele>359.591</ele>
        <time>2013-03-29T10:04:47Z</time>
      </trkpt>
      <trkpt lat="47.31028" lon="4.96155">
        <ele>359.791</ele>
        <time>2013-03-29T10:04:58Z</time>
      </trkpt>
      <trkpt lat="47.31028" lon="4.96155">
        <ele>359.791</ele>
        <time>2013-03-29T10:05:09Z</time>
      </trkpt>
      <trkpt lat="47.31028" lon="4.96155">
        <ele>359.791</ele>
        <time>2013-03-29T10:05:20Z</time>
      </trkpt>
      <trkpt lat="47.3103" lon="4.96153">
        <ele>359.86</ele>
        <time>2013-03-29T10:05:31Z</time>
      </trkpt>
      <trkpt lat="47.31037" lon="4.96167">
        <ele>358.618</ele>
        <time>2013-03-29T10:05:42Z</time>
      </trkpt>
      <trkpt lat="47.3104" lon="4.9617">
        <ele>360.571</ele>
        <time>2013-03-29T10:05:53Z</time>
      </trkpt>
      <trkpt lat="47.31043" lon="4.96155">
        <ele>363.973</ele>
        <time>2013-03-29T10:06:04Z</time>
      </trkpt>
      <trkpt lat="47.31042" lon="4.96142">
        <ele>365.763</ele>
        <time>2013-03-29T10:06:15Z</time>
      </trkpt>
      <trkpt lat="47.31038" lon="4.9613">
        <ele>367.94</ele>
        <time>2013-03-29T10:06:26Z</time>
      </trkpt>
      <trkpt lat="47.31043" lon="4.96118">
        <ele>368.48</ele>
        <time>2013-03-29T10:06:37Z</time>
      </trkpt>
      <trkpt lat="47.31048" lon="4.96113">
        <ele>369.145</ele>
        <time>2013-03-29T10:06:48Z</time>
      </trkpt>
      <trkpt lat="47.31053" lon="4.96103">
        <ele>368.424</ele>
        <time>2013-03-29T10:06:59Z</time>
      </trkpt>
      <trkpt lat="47.31057" lon="4.96095">
        <ele>370.554</ele>
        <time>2013-03-29T10:07:10Z</time>
      </trkpt>
      <trkpt lat="47.31058" lon="4.9609">
        <ele>372.214</ele>
        <time>2013-03-29T10:07:21Z</time>
      </trkpt>
      <trkpt lat="47.31065" lon="4.96082">
        <ele>372.851</ele>
        <time>2013-03-29T10:07:32Z</time>
      </trkpt>
      <trkpt lat="47.3107" lon="4.96073">
        <ele>372.99</ele>
        <time>2013-03-29T10:07:43Z</time>
      </trkpt>
      <trkpt lat="47.31072" lon="4.96067">
        <ele>376.504</ele>
        <time>2013-03-29T10:07:54Z</time>
      </trkpt>
      <trkpt lat="47.31077" lon="4.96068">
        <ele>375.903</ele>
        <time>2013-03-29T10:08:05Z</time>
      </trkpt>
      <trkpt lat="47.3108" lon="4.96077">
        <ele>372.423</ele>
        <time>2013-03-29T10:08:16Z</time>
      </trkpt>
      <trkpt lat="47.3108" lon="4.96092">
        <ele>371.33</ele>
        <time>2013-03-29T10:08:27Z</time>
      </trkpt>
      <trkpt lat="47.3108" lon="4.96112">
        <ele>367.377</ele>
        <time>2013-03-29T10:08:38Z</time>
      </trkpt>
      <trkpt lat="47.31082" lon="4.96127">
        <ele>365.408</ele>
        <time>2013-03-29T10:08:49Z</time>
      </trkpt>
      <trkpt lat="47.31083" lon="4.9615">
        <ele>359.875</ele>
        <time>2013-03-29T10:09:00Z</time>
      </trkpt>
      <trkpt lat="47.31092" lon="4.9617">
        <ele>358.901</ele>
        <time>2013-03-29T10:09:11Z</time>
      </trkpt>
      <trkpt lat="47.31097" lon="4.96188">
        <ele>358.483</ele>
        <time>2013-03-29T10:09:22Z</time>
      </trkpt>
      <trkpt lat="47.31098" lon="4.96202">
        <ele>357.418</ele>
        <time>2013-03-29T10:09:33Z</time>
      </trkpt>
      <trkpt lat="47.31105" lon="4.96222">
        <ele>356.878</ele>
        <time>2013-03-29T10:09:44Z</time>
      </trkpt>
      <trkpt lat="47.31108" lon="4.96233">
        <ele>357.931</ele>
        <time>2013-03-29T10:09:55Z</time>
      </trkpt>
      <trkpt lat="47.31117" lon="4.9626">
        <ele>359.042</ele>
        <time>2013-03-29T10:10:06Z</time>
      </trkpt>
      <trkpt lat="47.3112" lon="4.9627">
        <ele>363.415</ele>
        <time>2013-03-29T10:10:17Z</time>
      </trkpt>
      <trkpt lat="47.31132" lon="4.96295">
        <ele>363.612</ele>
        <time>2013-03-29T10:10:28Z</time>
      </trkpt>
      <trkpt lat="47.3114" lon="4.96308">
        <ele>364.195</ele>
        <time>2013-03-29T10:10:39Z</time>
      </trkpt>
      <trkpt lat="47.31148" lon="4.96325">
        <ele>361.602</ele>
        <time>2013-03-29T10:10:50Z</time>
      </trkpt>
      <trkpt lat="47.31155" lon="4.9634">
        <ele>359.461</ele>
        <time>2013-03-29T10:11:01Z</time>
      </trkpt>
      <trkpt lat="47.31162" lon="4.96353">
        <ele>359.374</ele>
        <time>2013-03-29T10:11:12Z</time>
      </trkpt>
      <trkpt lat="47.31168" lon="4.9637">
        <ele>359.426</ele>
        <time>2013-03-29T10:11:23Z</time>
      </trkpt>
      <trkpt lat="47.31173" lon="4.96388">
        <ele>359.178</ele>
        <time>2013-03-29T10:11:34Z</time>
      </trkpt>
      <trkpt lat="47.3118" lon="4.9641">
        <ele>359.414</ele>
        <time>2013-03-29T10:11:45Z</time>
      </trkpt>
      <trkpt lat="47.31187" lon="4.9643">
        <ele>358.608</ele>
        <time>2013-03-29T10:11:56Z</time>
      </trkpt>
      <trkpt lat="47.3119" lon="4.96453">
        <ele>361.311</ele>
        <time>2013-03-29T10:12:07Z</time>
      </trkpt>
      <trkpt lat="47.31192" lon="4.96472">
        <ele>360.903</ele>
        <time>2013-03-29T10:12:18Z</time>
      </trkpt>
      <trkpt lat="47.312" lon="4.965">
        <ele>356.579</ele>
        <time>2013-03-29T10:12:29Z</time>
      </trkpt>
      <trkpt lat="47.31207" lon="4.96528">
        <ele>356.508</ele>
        <time>2013-03-29T10:12:40Z</time>
      </trkpt>
      <trkpt lat="47.3121" lon="4.96552">
        <ele>358.106</ele>
        <time>2013-03-29T10:12:51Z</time>
      </trkpt>
      <trkpt lat="47.31213" lon="4.96575">
        <ele>360.384</ele>
        <time>2013-03-29T10:13:02Z</time>
      </trkpt>
      <trkpt lat="47.31218" lon="4.96597">
        <ele>357.891</ele>
        <time>2013-03-29T10:13:13Z</time>
      </trkpt>
      <trkpt lat="47.31227" lon="4.96607">
        <ele>358.181</ele>
        <time>2013-03-29T10:13:24Z</time>
      </trkpt>
      <trkpt lat="47.31228" lon="4.9661">
        <ele>358.244</ele>
        <time>2013-03-29T10:13:35Z</time>
      </trkpt>
      <trkpt lat="47.31238" lon="4.9662">
        <ele>357.366</ele>
        <time>2013-03-29T10:13:46Z</time>
      </trkpt>
      <trkpt lat="47.31243" lon="4.96635">
        <ele>360.059</ele>
        <time>2013-03-29T10:13:57Z</time>
      </trkpt>
      <trkpt lat="47.31252" lon="4.96647">
        <ele>359.912</ele>
        <time>2013-03-29T10:14:08Z</time>
      </trkpt>
      <trkpt lat="47.31265" lon="4.9666">
        <ele>360.545</ele>
        <time>2013-03-29T10:14:19Z</time>
      </trkpt>
      <trkpt lat="47.31272" lon="4.96668">
        <ele>361.727</ele>
        <time>2013-03-29T10:14:30Z</time>
      </trkpt>
      <trkpt lat="47.31277" lon="4.9668">
        <ele>359.364</ele>
        <time>2013-03-29T10:14:41Z</time>
      </trkpt>
      <trkpt lat="47.3128" lon="4.96685">
        <ele>360.091</ele>
        <time>2013-03-29T10:14:52Z</time>
      </trkpt>
      <trkpt lat="47.31292" lon="4.96695">
        <ele>360.705</ele>
        <time>2013-03-29T10:15:03Z</time>
      </trkpt>
      <trkpt lat="47.313" lon="4.96705">
        <ele>361.158</ele>
        <time>2013-03-29T10:15:14Z</time>
      </trkpt>
      <trkpt lat="47.31305" lon="4.9672">
        <ele>361.351</ele>
        <time>2013-03-29T10:15:25Z</time>
      </trkpt>
      <trkpt lat="47.31317" lon="4.9673">
        <ele>361.937</ele>
        <time>2013-03-29T10:15:36Z</time>
      </trkpt>
      <trkpt lat="47.31325" lon="4.96745">
        <ele>359.998</ele>
        <time>2013-03-29T10:15:47Z</time>
      </trkpt>
      <trkpt lat="47.31338" lon="4.96753">
        <ele>354.752</ele>
        <time>2013-03-29T10:15:58Z</time>
      </trkpt>
      <trkpt lat="47.31348" lon="4.96765">
        <ele>352.443</ele>
        <time>2013-03-29T10:16:09Z</time>
      </trkpt>
      <trkpt lat="47.31357" lon="4.96772">
        <ele>352.958</ele>
        <time>2013-03-29T10:16:20Z</time>
      </trkpt>
      <trkpt lat="47.3136" lon="4.96782">
        <ele>352.882</ele>
        <time>2013-03-29T10:16:31Z</time>
      </trkpt>
      <trkpt lat="47.31372" lon="4.96798">
        <ele>352.266</ele>
        <time>2013-03-29T10:16:42Z</time>
      </trkpt>
      <trkpt lat="47.31378" lon="4.9681">
        <ele>354.373</ele>
        <time>2013-03-29T10:16:53Z</time>
      </trkpt>
      <trkpt lat="47.31387" lon="4.96825">
        <ele>353.387</ele>
        <time>2013-03-29T10:17:04Z</time>
      </trkpt>
      <trkpt lat="47.31402" lon="4.9685">
        <ele>354.325</ele>
        <time>2013-03-29T10:17:15Z</time>
      </trkpt>
      <trkpt lat="47.31417" lon="4.96872">
        <ele>353.078</ele>
        <time>2013-03-29T10:17:26Z</time>
      </trkpt>
      <trkpt lat="47.3143" lon="4.96892">
        <ele>351.589</ele>
        <time>2013-03-29T10:17:37Z</time>
      </trkpt>
      <trkpt lat="47.31442" lon="4.96903">
        <ele>351.791</ele>
        <time>2013-03-29T10:17:48Z</time>
      </trkpt>
      <trkpt lat="47.31457" lon="4.96908">
        <ele>350.589</ele>
        <time>2013-03-29T10:17:59Z</time>
      </trkpt>
      <trkpt lat="47.3146" lon="4.96912">
        <ele>350.716</ele>
        <time>2013-03-29T10:18:10Z</time>
      </trkpt>
      <trkpt lat="47.3146" lon="4.96912">
        <ele>350.82</ele>
        <time>2013-03-29T10:18:21Z</time>
      </trkpt>
      <trkpt lat="47.31462" lon="4.96913">
        <ele>351.169</ele>
        <time>2013-03-29T10:18:32Z</time>
      </trkpt>
      <trkpt lat="47.31462" lon="4.96913">
        <ele>352.018</ele>
        <time>2013-03-29T10:18:43Z</time>
      </trkpt>
      <trkpt lat="47.31462" lon="4.96913">
        <ele>352.02</ele>
        <time>2013-03-29T10:18:54Z</time>
      </trkpt>
      <trkpt lat="47.3146" lon="4.96913">
        <ele>351.995</ele>
        <time>2013-03-29T10:19:05Z</time>
      </trkpt>
      <trkpt lat="47.3146" lon="4.96913">
        <ele>351.995</ele>
        <time>2013-03-29T10:19:16Z</time>
      </trkpt>
      <trkpt lat="47.31463" lon="4.96915">
        <ele>352.611</ele>
        <time>2013-03-29T10:19:27Z</time>
      </trkpt>
      <trkpt lat="47.31463" lon="4.96915">
        <ele>353.227</ele>
        <time>2013-03-29T10:19:38Z</time>
      </trkpt>
      <trkpt lat="47.31465" lon="4.96918">
        <ele>354.272</ele>
        <time>2013-03-29T10:19:49Z</time>
      </trkpt>
      <trkpt lat="47.31465" lon="4.96918">
        <ele>354.272</ele>
        <time>2013-03-29T10:20:00Z</time>
      </trkpt>
      <trkpt lat="47.31467" lon="4.96918">
        <ele>354.117</ele>
        <time>2013-03-29T10:20:11Z</time>
      </trkpt>
      <trkpt lat="47.31468" lon="4.96917">
        <ele>354.98</ele>
        <time>2013-03-29T10:20:22Z</time>
      </trkpt>
      <trkpt lat="47.31468" lon="4.96917">
        <ele>355.087</ele>
        <time>2013-03-29T10:20:33Z</time>
      </trkpt>
      <trkpt lat="47.3147" lon="4.96917">
        <ele>353.903</ele>
        <time>2013-03-29T10:20:44Z</time>
      </trkpt>
      <trkpt lat="47.31472" lon="4.96918">
        <ele>353.283</ele>
        <time>2013-03-29T10:20:55Z</time>
      </trkpt>
      <trkpt lat="47.31472" lon="4.96918">
        <ele>353.513</ele>
        <time>2013-03-29T10:21:06Z</time>
      </trkpt>
      <trkpt lat="47.31477" lon="4.96908">
        <ele>354.015</ele>
        <time>2013-03-29T10:21:17Z</time>
      </trkpt>
      <trkpt lat="47.31482" lon="4.96903">
        <ele>354.374</ele>
        <time>2013-03-29T10:21:28Z</time>
      </trkpt>
      <trkpt lat="47.31485" lon="4.969">
        <ele>353.282</ele>
        <time>2013-03-29T10:21:39Z</time>
      </trkpt>
      <trkpt lat="47.31487" lon="4.96898">
        <ele>353.538</ele>
        <time>2013-03-29T10:21:50Z</time>
      </trkpt>
      <trkpt lat="47.3149" lon="4.96898">
        <ele>355.636</ele>
        <time>2013-03-29T10:22:01Z</time>
      </trkpt>
      <trkpt lat="47.31497" lon="4.96897">
        <ele>355.206</ele>
        <time>2013-03-29T10:22:12Z</time>
      </trkpt>
      <trkpt lat="47.31502" lon="4.96895">
        <ele>356.04</ele>
        <time>2013-03-29T10:22:23Z</time>
      </trkpt>
      <trkpt lat="47.31505" lon="4.96895">
        <ele>357.192</ele>
        <time>2013-03-29T10:22:34Z</time>
      </trkpt>
      <trkpt lat="47.3151" lon="4.969">
        <ele>359.595</ele>
        <time>2013-03-29T10:22:45Z</time>
      </trkpt>
      <trkpt lat="47.3151" lon="4.96902">
        <ele>360.402</ele>
        <time>2013-03-29T10:22:56Z</time>
      </trkpt>
      <trkpt lat="47.31512" lon="4.96902">
        <ele>360.321</ele>
        <time>2013-03-29T10:23:07Z</time>
      </trkpt>
      <trkpt lat="47.31513" lon="4.96903">
        <ele>361.418</ele>
        <time>2013-03-29T10:23:18Z</time>
      </trkpt>
      <trkpt lat="47.31517" lon="4.96912">
        <ele>361.619</ele>
        <time>2013-03-29T10:23:29Z</time>
      </trkpt>
      <trkpt lat="47.3152" lon="4.96922">
        <ele>358.703</ele>
        <time>2013-03-29T10:23:40Z</time>
      </trkpt>
      <trkpt lat="47.31527" lon="4.96935">
        <ele>357.346</ele>
        <time>2013-03-29T10:23:51Z</time>
      </trkpt>
      <trkpt lat="47.31533" lon="4.96962">
        <ele>355.817</ele>
        <time>2013-03-29T10:24:02Z</time>
      </trkpt>
      <trkpt lat="47.31538" lon="4.96968">
        <ele>355.846</ele>
        <time>2013-03-29T10:24:13Z</time>
      </trkpt>
      <trkpt lat="47.3155" lon="4.96988">
        <ele>356.19</ele>
        <time>2013-03-29T10:24:24Z</time>
      </trkpt>
      <trkpt lat="47.31558" lon="4.96997">
        <ele>356.173</ele>
        <time>2013-03-29T10:24:35Z</time>
      </trkpt>
      <trkpt lat="47.31565" lon="4.97">
        <ele>354.125</ele>
        <time>2013-03-29T10:24:46Z</time>
      </trkpt>
      <trkpt lat="47.31573" lon="4.97013">
        <ele>353.295</ele>
        <time>2013-03-29T10:24:57Z</time>
      </trkpt>
      <trkpt lat="47.31585" lon="4.9703">
        <ele>350.22</ele>
        <time>2013-03-29T10:25:08Z</time>
      </trkpt>
      <trkpt lat="47.31592" lon="4.9703">
        <ele>350.667</ele>
        <time>2013-03-29T10:25:19Z</time>
      </trkpt>
      <trkpt lat="47.31598" lon="4.97032">
        <ele>352.626</ele>
        <time>2013-03-29T10:25:30Z</time>
      </trkpt>
      <trkpt lat="47.3161" lon="4.97038">
        <ele>354.339</ele>
        <time>2013-03-29T10:25:41Z</time>
      </trkpt>
      <trkpt lat="47.3162" lon="4.97048">
        <ele>355.315</ele>
        <time>2013-03-29T10:25:52Z</time>
      </trkpt>
      <trkpt lat="47.31628" lon="4.97057">
        <ele>354.793</ele>
        <time>2013-03-29T10:26:03Z</time>
      </trkpt>
      <trkpt lat="47.3163" lon="4.9707">
        <ele>354.087</ele>
        <time>2013-03-29T10:26:14Z</time>
      </trkpt>
      <trkpt lat="47.31637" lon="4.9707">
        <ele>351.309</ele>
        <time>2013-03-29T10:26:25Z</time>
      </trkpt>
      <trkpt lat="47.31657" lon="4.97082">
        <ele>346.963</ele>
        <time>2013-03-29T10:26:36Z</time>
      </trkpt>
      <trkpt lat="47.31668" lon="4.97095">
        <ele>346.979</ele>
        <time>2013-03-29T10:26:47Z</time>
      </trkpt>
      <trkpt lat="47.3168" lon="4.97098">
        <ele>346.661</ele>
        <time>2013-03-29T10:26:58Z</time>
      </trkpt>
      <trkpt lat="47.3169" lon="4.97107">
        <ele>346.914</ele>
        <time>2013-03-29T10:27:09Z</time>
      </trkpt>
      <trkpt lat="47.31693" lon="4.97112">
        <ele>345.713</ele>
        <time>2013-03-29T10:27:20Z</time>
      </trkpt>
      <trkpt lat="47.31695" lon="4.97113">
        <ele>346.119</ele>
        <time>2013-03-29T10:27:31Z</time>
      </trkpt>
      <trkpt lat="47.31697" lon="4.97118">
        <ele>345.204</ele>
        <time>2013-03-29T10:27:42Z</time>
      </trkpt>
      <trkpt lat="47.31698" lon="4.97122">
        <ele>346.061</ele>
        <time>2013-03-29T10:27:53Z</time>
      </trkpt>
      <trkpt lat="47.31708" lon="4.97125">
        <ele>346.494</ele>
        <time>2013-03-29T10:28:04Z</time>
      </trkpt>
      <trkpt lat="47.31722" lon="4.97138">
        <ele>350.555</ele>
        <time>2013-03-29T10:28:15Z</time>
      </trkpt>
      <trkpt lat="47.31728" lon="4.97143">
        <ele>349.971</ele>
        <time>2013-03-29T10:28:26Z</time>
      </trkpt>
      <trkpt lat="47.31743" lon="4.97153">
        <ele>348.672</ele>
        <time>2013-03-29T10:28:37Z</time>
      </trkpt>
      <trkpt lat="47.31758" lon="4.97162">
        <ele>346.599</ele>
        <time>2013-03-29T10:28:48Z</time>
      </trkpt>
      <trkpt lat="47.31773" lon="4.97172">
        <ele>344.629</ele>
        <time>2013-03-29T10:28:59Z</time>
      </trkpt>
      <trkpt lat="47.31787" lon="4.97183">
        <ele>343.499</ele>
        <time>2013-03-29T10:29:10Z</time>
      </trkpt>
      <trkpt lat="47.31797" lon="4.97198">
        <ele>345.56</ele>
        <time>2013-03-29T10:29:21Z</time>
      </trkpt>
      <trkpt lat="47.3181" lon="4.97205">
        <ele>346.84</ele>
        <time>2013-03-29T10:29:32Z</time>
      </trkpt>
      <trkpt lat="47.3182" lon="4.9721">
        <ele>347.732</ele>
        <time>2013-03-29T10:29:43Z</time>
      </trkpt>
      <trkpt lat="47.31835" lon="4.97213">
        <ele>350.017</ele>
        <time>2013-03-29T10:29:54Z</time>
      </trkpt>
      <trkpt lat="47.31848" lon="4.97225">
        <ele>348.615</ele>
        <time>2013-03-29T10:30:05Z</time>
      </trkpt>
      <trkpt lat="47.31855" lon="4.9724">
        <ele>347.035</ele>
        <time>2013-03-29T10:30:16Z</time>
      </trkpt>
      <trkpt lat="47.31862" lon="4.97253">
        <ele>345.025</ele>
        <time>2013-03-29T10:30:27Z</time>
      </trkpt>
      <trkpt lat="47.31872" lon="4.9727">
        <ele>343.772</ele>
        <time>2013-03-29T10:30:38Z</time>
      </trkpt>
      <trkpt lat="47.31882" lon="4.97283">
        <ele>342.561</ele>
        <time>2013-03-29T10:30:49Z</time>
      </trkpt>
      <trkpt lat="47.31892" lon="4.97295">
        <ele>343.814</ele>
        <time>2013-03-29T10:31:00Z</time>
      </trkpt>
      <trkpt lat="47.31905" lon="4.97297">
        <ele>341.485</ele>
        <time>2013-03-29T10:31:11Z</time>
      </trkpt>
      <trkpt lat="47.31907" lon="4.97298">
        <ele>341.57</ele>
        <time>2013-03-29T10:31:22Z</time>
      </trkpt>
      <trkpt lat="47.31912" lon="4.97313">
        <ele>340.286</ele>
        <time>2013-03-29T10:31:33Z</time>
      </trkpt>
      <trkpt lat="47.31915" lon="4.97328">
        <ele>339.013</ele>
        <time>2013-03-29T10:31:44Z</time>
      </trkpt>
      <trkpt lat="47.31917" lon="4.9734">
        <ele>338.37</ele>
        <time>2013-03-29T10:31:55Z</time>
      </trkpt>
      <trkpt lat="47.31918" lon="4.97353">
        <ele>338.001</ele>
        <time>2013-03-29T10:32:06Z</time>
      </trkpt>
      <trkpt lat="47.31923" lon="4.97372">
        <ele>337.697</ele>
        <time>2013-03-29T10:32:17Z</time>
      </trkpt>
      <trkpt lat="47.31925" lon="4.97382">
        <ele>337.048</ele>
        <time>2013-03-29T10:32:28Z</time>
      </trkpt>
      <trkpt lat="47.31925" lon="4.9739">
        <ele>335.625</ele>
        <time>2013-03-29T10:32:39Z</time>
      </trkpt>
      <trkpt lat="47.31922" lon="4.97405">
        <ele>332.234</ele>
        <time>2013-03-29T10:32:50Z</time>
      </trkpt>
      <trkpt lat="47.31928" lon="4.97413">
        <ele>330.254</ele>
        <time>2013-03-29T10:33:01Z</time>
      </trkpt>
      <trkpt lat="47.31937" lon="4.97412">
        <ele>330.283</ele>
        <time>2013-03-29T10:33:12Z</time>
      </trkpt>
      <trkpt lat="47.31942" lon="4.97407">
        <ele>331.582</ele>
        <time>2013-03-29T10:33:23Z</time>
      </trkpt>
      <trkpt lat="47.31943" lon="4.97407">
        <ele>332.991</ele>
        <time>2013-03-29T10:33:34Z</time>
      </trkpt>
      <trkpt lat="47.3195" lon="4.97398">
        <ele>334.025</ele>
        <time>2013-03-29T10:33:45Z</time>
      </trkpt>
      <trkpt lat="47.31955" lon="4.97397">
        <ele>333.179</ele>
        <time>2013-03-29T10:33:56Z</time>
      </trkpt>
      <trkpt lat="47.31962" lon="4.97395">
        <ele>331.956</ele>
        <time>2013-03-29T10:34:07Z</time>
      </trkpt>
      <trkpt lat="47.31973" lon="4.97398">
        <ele>329.341</ele>
        <time>2013-03-29T10:34:18Z</time>
      </trkpt>
      <trkpt lat="47.31977" lon="4.97403">
        <ele>327.739</ele>
        <time>2013-03-29T10:34:29Z</time>
      </trkpt>
      <trkpt lat="47.31978" lon="4.97403">
        <ele>328.104</ele>
        <time>2013-03-29T10:34:40Z</time>
      </trkpt>
      <trkpt lat="47.31978" lon="4.97403">
        <ele>328.104</ele>
        <time>2013-03-29T10:34:51Z</time>
      </trkpt>
      <trkpt lat="47.31978" lon="4.97405">
        <ele>328.502</ele>
        <time>2013-03-29T10:35:02Z</time>
      </trkpt>
      <trkpt lat="47.31978" lon="4.97405">
        <ele>328.616</ele>
        <time>2013-03-29T10:35:13Z</time>
      </trkpt>
      <trkpt lat="47.3198" lon="4.97405">
        <ele>328.543</ele>
        <time>2013-03-29T10:35:24Z</time>
      </trkpt>
      <trkpt lat="47.3198" lon="4.97405">
        <ele>328.014</ele>
        <time>2013-03-29T10:35:35Z</time>
      </trkpt>
      <trkpt lat="47.31988" lon="4.97403">
        <ele>329.553</ele>
        <time>2013-03-29T10:35:46Z</time>
      </trkpt>
      <trkpt lat="47.31998" lon="4.97393">
        <ele>331.587</ele>
        <time>2013-03-29T10:35:57Z</time>
      </trkpt>
      <trkpt lat="47.32002" lon="4.97387">
        <ele>330.407</ele>
        <time>2013-03-29T10:36:08Z</time>
      </trkpt>
      <trkpt lat="47.32008" lon="4.97387">
        <ele>334.39</ele>
        <time>2013-03-29T10:36:19Z</time>
      </trkpt>
      <trkpt lat="47.32012" lon="4.97387">
        <ele>331.469</ele>
        <time>2013-03-29T10:36:30Z</time>
      </trkpt>
      <trkpt lat="47.32018" lon="4.97393">
        <ele>329.765</ele>
        <time>2013-03-29T10:36:41Z</time>
      </trkpt>
      <trkpt lat="47.32022" lon="4.97402">
        <ele>327.325</ele>
        <time>2013-03-29T10:36:52Z</time>
      </trkpt>
      <trkpt lat="47.32025" lon="4.97405">
        <ele>329.554</ele>
        <time>2013-03-29T10:37:03Z</time>
      </trkpt>
      <trkpt lat="47.3203" lon="4.97413">
        <ele>329.632</ele>
        <time>2013-03-29T10:37:14Z</time>
      </trkpt>
      <trkpt lat="47.32035" lon="4.97422">
        <ele>328.102</ele>
        <time>2013-03-29T10:37:25Z</time>
      </trkpt>
      <trkpt lat="47.32037" lon="4.97427">
        <ele>332.215</ele>
        <time>2013-03-29T10:37:36Z</time>
      </trkpt>
      <trkpt lat="47.32038" lon="4.97432">
        <ele>332.361</ele>
        <time>2013-03-29T10:37:47Z</time>
      </trkpt>
      <trkpt lat="47.32042" lon="4.9744">
        <ele>330.34</ele>
        <time>2013-03-29T10:37:58Z</time>
      </trkpt>
      <trkpt lat="47.32043" lon="4.97445">
        <ele>334.661</ele>
        <time>2013-03-29T10:38:09Z</time>
      </trkpt>
      <trkpt lat="47.3205" lon="4.97448">
        <ele>336.192</ele>
        <time>2013-03-29T10:38:20Z</time>
      </trkpt>
      <trkpt lat="47.32053" lon="4.97462">
        <ele>337.487</ele>
        <time>2013-03-29T10:38:31Z</time>
      </trkpt>
      <trkpt lat="47.32058" lon="4.97478">
        <ele>339.769</ele>
        <time>2013-03-29T10:38:42Z</time>
      </trkpt>
      <trkpt lat="47.32062" lon="4.97493">
        <ele>343.856</ele>
        <time>2013-03-29T10:38:53Z</time>
      </trkpt>
      <trkpt lat="47.32065" lon="4.97505">
        <ele>347.815</ele>
        <time>2013-03-29T10:39:04Z</time>
      </trkpt>
      <trkpt lat="47.32072" lon="4.97522">
        <ele>346.238</ele>
        <time>2013-03-29T10:39:15Z</time>
      </trkpt>
      <trkpt lat="47.32073" lon="4.97543">
        <ele>345.78</ele>
        <time>2013-03-29T10:39:26Z</time>
      </trkpt>
      <trkpt lat="47.32077" lon="4.97562">
        <ele>347.365</ele>
        <time>2013-03-29T10:39:37Z</time>
      </trkpt>
      <trkpt lat="47.32087" lon="4.97568">
        <ele>348.096</ele>
        <time>2013-03-29T10:39:48Z</time>
      </trkpt>
      <trkpt lat="47.32088" lon="4.97558">
        <ele>349.535</ele>
        <time>2013-03-29T10:39:59Z</time>
      </trkpt>
      <trkpt lat="47.3209" lon="4.97557">
        <ele>351.019</ele>
        <time>2013-03-29T10:40:10Z</time>
      </trkpt>
      <trkpt lat="47.3209" lon="4.97557">
        <ele>351.646</ele>
        <time>2013-03-29T10:40:21Z</time>
      </trkpt>
      <trkpt lat="47.3209" lon="4.97552">
        <ele>352.675</ele>
        <time>2013-03-29T10:40:32Z</time>
      </trkpt>
      <trkpt lat="47.32092" lon="4.97542">
        <ele>354.292</ele>
        <time>2013-03-29T10:40:43Z</time>
      </trkpt>
      <trkpt lat="47.32097" lon="4.97528">
        <ele>358.446</ele>
        <time>2013-03-29T10:40:54Z</time>
      </trkpt>
      <trkpt lat="47.321" lon="4.9751">
        <ele>363.017</ele>
        <time>2013-03-29T10:41:05Z</time>
      </trkpt>
      <trkpt lat="47.32107" lon="4.97497">
        <ele>363.841</ele>
        <time>2013-03-29T10:41:16Z</time>
      </trkpt>
      <trkpt lat="47.32112" lon="4.97475">
        <ele>366.133</ele>
        <time>2013-03-29T10:41:27Z</time>
      </trkpt>
      <trkpt lat="47.32118" lon="4.9746">
        <ele>367.704</ele>
        <time>2013-03-29T10:41:38Z</time>
      </trkpt>
      <trkpt lat="47.32122" lon="4.97452">
        <ele>368.079</ele>
        <time>2013-03-29T10:41:49Z</time>
      </trkpt>
      <trkpt lat="47.32135" lon="4.97448">
        <ele>366.833</ele>
        <time>2013-03-29T10:42:00Z</time>
      </trkpt>
      <trkpt lat="47.32143" lon="4.97443">
        <ele>366.956</ele>
        <time>2013-03-29T10:42:11Z</time>
      </trkpt>
      <trkpt lat="47.32148" lon="4.97443">
        <ele>365.625</ele>
        <time>2013-03-29T10:42:22Z</time>
      </trkpt>
      <trkpt lat="47.32165" lon="4.9745">
        <ele>366.148</ele>
        <time>2013-03-29T10:42:33Z</time>
      </trkpt>
      <trkpt lat="47.32175" lon="4.97453">
        <ele>366.674</ele>
        <time>2013-03-29T10:42:44Z</time>
      </trkpt>
      <trkpt lat="47.32187" lon="4.97462">
        <ele>368.118</ele>
        <time>2013-03-29T10:42:55Z</time>
      </trkpt>
      <trkpt lat="47.322" lon="4.97468">
        <ele>368.002</ele>
        <time>2013-03-29T10:43:06Z</time>
      </trkpt>
      <trkpt lat="47.32208" lon="4.97467">
        <ele>369.208</ele>
        <time>2013-03-29T10:43:17Z</time>
      </trkpt>
      <trkpt lat="47.3222" lon="4.97463">
        <ele>370.145</ele>
        <time>2013-03-29T10:43:28Z</time>
      </trkpt>
      <trkpt lat="47.32233" lon="4.97467">
        <ele>370.116</ele>
        <time>2013-03-29T10:43:39Z</time>
      </trkpt>
      <trkpt lat="47.32242" lon="4.97468">
        <ele>369.88</ele>
        <time>2013-03-29T10:43:50Z</time>
      </trkpt>
      <trkpt lat="47.32248" lon="4.9747">
        <ele>370.737</ele>
        <time>2013-03-29T10:44:01Z</time>
      </trkpt>
      <trkpt lat="47.32257" lon="4.97472">
        <ele>370.398</ele>
        <time>2013-03-29T10:44:12Z</time>
      </trkpt>
      <trkpt lat="47.3226" lon="4.97473">
        <ele>372.425</ele>
        <time>2013-03-29T10:44:23Z</time>
      </trkpt>
      <trkpt lat="47.32267" lon="4.97475">
        <ele>373.66</ele>
        <time>2013-03-29T10:44:34Z</time>
      </trkpt>
      <trkpt lat="47.32278" lon="4.97477">
        <ele>374.428</ele>
        <time>2013-03-29T10:44:45Z</time>
      </trkpt>
      <trkpt lat="47.32288" lon="4.97478">
        <ele>375.085</ele>
        <time>2013-03-29T10:44:56Z</time>
      </trkpt>
      <trkpt lat="47.32298" lon="4.9748">
        <ele>376.384</ele>
        <time>2013-03-29T10:45:07Z</time>
      </trkpt>
      <trkpt lat="47.32305" lon="4.9748">
        <ele>379.621</ele>
        <time>2013-03-29T10:45:18Z</time>
      </trkpt>
      <trkpt lat="47.32315" lon="4.9748">
        <ele>384.008</ele>
        <time>2013-03-29T10:45:29Z</time>
      </trkpt>
      <trkpt lat="47.32325" lon="4.97475">
        <ele>388.034</ele>
        <time>2013-03-29T10:45:40Z</time>
      </trkpt>
      <trkpt lat="47.32335" lon="4.97473">
        <ele>391.735</ele>
        <time>2013-03-29T10:45:51Z</time>
      </trkpt>
      <trkpt lat="47.32347" lon="4.97477">
        <ele>394.573</ele>
        <time>2013-03-29T10:46:02Z</time>
      </trkpt>
      <trkpt lat="47.32353" lon="4.97478">
        <ele>395.223</ele>
        <time>2013-03-29T10:46:13Z</time>
      </trkpt>
      <trkpt lat="47.32367" lon="4.97485">
        <ele>396.312</ele>
        <time>2013-03-29T10:46:24Z</time>
      </trkpt>
      <trkpt lat="47.3238" lon="4.97488">
        <ele>396.459</ele>
        <time>2013-03-29T10:46:35Z</time>
      </trkpt>
      <trkpt lat="47.3239" lon="4.97487">
        <ele>397.449</ele>
        <time>2013-03-29T10:46:46Z</time>
      </trkpt>
      <trkpt lat="47.32403" lon="4.9749">
        <ele>397.252</ele>
        <time>2013-03-29T10:46:57Z</time>
      </trkpt>
      <trkpt lat="47.32418" lon="4.97497">
        <ele>396.867</ele>
        <time>2013-03-29T10:47:08Z</time>
      </trkpt>
      <trkpt lat="47.32427" lon="4.97498">
        <ele>398.379</ele>
        <time>2013-03-29T10:47:19Z</time>
      </trkpt>
      <trkpt lat="47.32442" lon="4.97503">
        <ele>398.577</ele>
        <time>2013-03-29T10:47:30Z</time>
      </trkpt>
      <trkpt lat="47.32455" lon="4.97512">
        <ele>397.532</ele>
        <time>2013-03-29T10:47:41Z</time>
      </trkpt>
      <trkpt lat="47.32455" lon="4.97533">
        <ele>397.105</ele>
        <time>2013-03-29T10:47:52Z</time>
      </trkpt>
      <trkpt lat="47.32457" lon="4.97548">
        <ele>396.565</ele>
        <time>2013-03-29T10:48:03Z</time>
      </trkpt>
      <trkpt lat="47.3246" lon="4.97562">
        <ele>397.803</ele>
        <time>2013-03-29T10:48:14Z</time>
      </trkpt>
      <trkpt lat="47.32465" lon="4.97573">
        <ele>399.731</ele>
        <time>2013-03-29T10:48:25Z</time>
      </trkpt>
      <trkpt lat="47.32472" lon="4.97588">
        <ele>399.862</ele>
        <time>2013-03-29T10:48:36Z</time>
      </trkpt>
      <trkpt lat="47.32478" lon="4.97607">
        <ele>401.244</ele>
        <time>2013-03-29T10:48:47Z</time>
      </trkpt>
      <trkpt lat="47.32483" lon="4.9763">
        <ele>400.944</ele>
        <time>2013-03-29T10:48:58Z</time>
      </trkpt>
      <trkpt lat="47.32485" lon="4.97653">
        <ele>398.392</ele>
        <time>2013-03-29T10:49:09Z</time>
      </trkpt>
      <trkpt lat="47.32482" lon="4.97677">
        <ele>395.943</ele>
        <time>2013-03-29T10:49:20Z</time>
      </trkpt>
      <trkpt lat="47.3248" lon="4.977">
        <ele>395.015</ele>
        <time>2013-03-29T10:49:31Z</time>
      </trkpt>
      <trkpt lat="47.3248" lon="4.97725">
        <ele>392.756</ele>
        <time>2013-03-29T10:49:42Z</time>
      </trkpt>
      <trkpt lat="47.32478" lon="4.9775">
        <ele>389.869</ele>
        <time>2013-03-29T10:49:53Z</time>
      </trkpt>
      <trkpt lat="47.32477" lon="4.97772">
        <ele>387.682</ele>
        <time>2013-03-29T10:50:04Z</time>
      </trkpt>
      <trkpt lat="47.32478" lon="4.97795">
        <ele>385.083</ele>
        <time>2013-03-29T10:50:15Z</time>
      </trkpt>
      <trkpt lat="47.32482" lon="4.97815">
        <ele>384.004</ele>
        <time>2013-03-29T10:50:26Z</time>
      </trkpt>
      <trkpt lat="47.32482" lon="4.97835">
        <ele>383.101</ele>
        <time>2013-03-29T10:50:37Z</time>
      </trkpt>
      <trkpt lat="47.32482" lon="4.97857">
        <ele>380.932</ele>
        <time>2013-03-29T10:50:48Z</time>
      </trkpt>
      <trkpt lat="47.3248" lon="4.97883">
        <ele>379.482</ele>
        <time>2013-03-29T10:50:59Z</time>
      </trkpt>
      <trkpt lat="47.3248" lon="4.97907">
        <ele>376.607</ele>
        <time>2013-03-29T10:51:10Z</time>
      </trkpt>
      <trkpt lat="47.32478" lon="4.97932">
        <ele>376.517</ele>
        <time>2013-03-29T10:51:21Z</time>
      </trkpt>
      <trkpt lat="47.32478" lon="4.97957">
        <ele>375.405</ele>
        <time>2013-03-29T10:51:32Z</time>
      </trkpt>
      <trkpt lat="47.32478" lon="4.97978">
        <ele>373.772</ele>
        <time>2013-03-29T10:51:43Z</time>
      </trkpt>
      <trkpt lat="47.32477" lon="4.98002">
        <ele>372.945</ele>
        <time>2013-03-29T10:51:54Z</time>
      </trkpt>
      <trkpt lat="47.32475" lon="4.98027">
        <ele>370.637</ele>
        <time>2013-03-29T10:52:05Z</time>
      </trkpt>
      <trkpt lat="47.32475" lon="4.98047">
        <ele>369.892</ele>
        <time>2013-03-29T10:52:16Z</time>
      </trkpt>
      <trkpt lat="47.32475" lon="4.98073">
        <ele>369.01</ele>
        <time>2013-03-29T10:52:27Z</time>
      </trkpt>
      <trkpt lat="47.32477" lon="4.98097">
        <ele>367.925</ele>
        <time>2013-03-29T10:52:38Z</time>
      </trkpt>
      <trkpt lat="47.32477" lon="4.9812">
        <ele>368.423</ele>
        <time>2013-03-29T10:52:49Z</time>
      </trkpt>
      <trkpt lat="47.32478" lon="4.98145">
        <ele>368.159</ele>
        <time>2013-03-29T10:53:00Z</time>
      </trkpt>
      <trkpt lat="47.32478" lon="4.98168">
        <ele>366.22</ele>
        <time>2013-03-29T10:53:11Z</time>
      </trkpt>
      <trkpt lat="47.32478" lon="4.98193">
        <ele>363.297</ele>
        <time>2013-03-29T10:53:22Z</time>
      </trkpt>
      <trkpt lat="47.32477" lon="4.98218">
        <ele>361.469</ele>
        <time>2013-03-29T10:53:33Z</time>
      </trkpt>
      <trkpt lat="47.32475" lon="4.98243">
        <ele>360.477</ele>
        <time>2013-03-29T10:53:44Z</time>
      </trkpt>
      <trkpt lat="47.32473" lon="4.98267">
        <ele>359.898</ele>
        <time>2013-03-29T10:53:55Z</time>
      </trkpt>
      <trkpt lat="47.3247" lon="4.98288">
        <ele>359.583</ele>
        <time>2013-03-29T10:54:06Z</time>
      </trkpt>
      <trkpt lat="47.3247" lon="4.98313">
        <ele>358.612</ele>
        <time>2013-03-29T10:54:17Z</time>
      </trkpt>
      <trkpt lat="47.32473" lon="4.98337">
        <ele>357.474</ele>
        <time>2013-03-29T10:54:28Z</time>
      </trkpt>
      <trkpt lat="47.32475" lon="4.98362">
        <ele>357.352</ele>
        <time>2013-03-29T10:54:39Z</time>
      </trkpt>
      <trkpt lat="47.32477" lon="4.98385">
        <ele>357.137</ele>
        <time>2013-03-29T10:54:50Z</time>
      </trkpt>
      <trkpt lat="47.32478" lon="4.98408">
        <ele>356.159</ele>
        <time>2013-03-29T10:55:01Z</time>
      </trkpt>
      <trkpt lat="47.32478" lon="4.9843">
        <ele>356.365</ele>
        <time>2013-03-29T10:55:12Z</time>
      </trkpt>
      <trkpt lat="47.3248" lon="4.98452">
        <ele>356.576</ele>
        <time>2013-03-29T10:55:23Z</time>
      </trkpt>
      <trkpt lat="47.32495" lon="4.98462">
        <ele>356.253</ele>
        <time>2013-03-29T10:55:34Z</time>
      </trkpt>
      <trkpt lat="47.3251" lon="4.98467">
        <ele>355.696</ele>
        <time>2013-03-29T10:55:45Z</time>
      </trkpt>
      <trkpt lat="47.32527" lon="4.98472">
        <ele>355.133</ele>
        <time>2013-03-29T10:55:56Z</time>
      </trkpt>
      <trkpt lat="47.32533" lon="4.98478">
        <ele>355.532</ele>
        <time>2013-03-29T10:56:07Z</time>
      </trkpt>
      <trkpt lat="47.3254" lon="4.98488">
        <ele>355.197</ele>
        <time>2013-03-29T10:56:18Z</time>
      </trkpt>
      <trkpt lat="47.32543" lon="4.98513">
        <ele>353.729</ele>
        <time>2013-03-29T10:56:29Z</time>
      </trkpt>
      <trkpt lat="47.32548" lon="4.9853">
        <ele>354.143</ele>
        <time>2013-03-29T10:56:40Z</time>
      </trkpt>
      <trkpt lat="47.32555" lon="4.98547">
        <ele>354.466</ele>
        <time>2013-03-29T10:56:51Z</time>
      </trkpt>
      <trkpt lat="47.32563" lon="4.98562">
        <ele>354.316</ele>
        <time>2013-03-29T10:57:02Z</time>
      </trkpt>
      <trkpt lat="47.32572" lon="4.98573">
        <ele>353.94</ele>
        <time>2013-03-29T10:57:13Z</time>
      </trkpt>
      <trkpt lat="47.32575" lon="4.986">
        <ele>352.286</ele>
        <time>2013-03-29T10:57:24Z</time>
      </trkpt>
      <trkpt lat="47.3258" lon="4.9861">
        <ele>351.324</ele>
        <time>2013-03-29T10:57:35Z</time>
      </trkpt>
      <trkpt lat="47.32592" lon="4.98613">
        <ele>348.932</ele>
        <time>2013-03-29T10:57:46Z</time>
      </trkpt>
      <trkpt lat="47.32607" lon="4.98613">
        <ele>347.236</ele>
        <time>2013-03-29T10:57:57Z</time>
      </trkpt>
      <trkpt lat="47.32607" lon="4.98615">
        <ele>347.325</ele>
        <time>2013-03-29T10:58:08Z</time>
      </trkpt>
      <trkpt lat="47.32607" lon="4.98615">
        <ele>347.325</ele>
        <time>2013-03-29T10:58:19Z</time>
      </trkpt>
      <trkpt lat="47.32607" lon="4.98615">
        <ele>347.325</ele>
        <time>2013-03-29T10:58:30Z</time>
      </trkpt>
      <trkpt lat="47.32608" lon="4.98615">
        <ele>347.224</ele>
        <time>2013-03-29T10:58:41Z</time>
      </trkpt>
      <trkpt lat="47.32608" lon="4.98615">
        <ele>347.224</ele>
        <time>2013-03-29T10:58:52Z</time>
      </trkpt>
      <trkpt lat="47.32608" lon="4.98615">
        <ele>347.224</ele>
        <time>2013-03-29T10:59:03Z</time>
      </trkpt>
      <trkpt lat="47.32607" lon="4.98617">
        <ele>347.758</ele>
        <time>2013-03-29T10:59:14Z</time>
      </trkpt>
      <trkpt lat="47.32602" lon="4.9863">
        <ele>347.615</ele>
        <time>2013-03-29T10:59:25Z</time>
      </trkpt>
      <trkpt lat="47.326" lon="4.98643">
        <ele>346.26</ele>
        <time>2013-03-29T10:59:36Z</time>
      </trkpt>
      <trkpt lat="47.32603" lon="4.98662">
        <ele>345.863</ele>
        <time>2013-03-29T10:59:47Z</time>
      </trkpt>
      <trkpt lat="47.32598" lon="4.9867">
        <ele>345.946</ele>
        <time>2013-03-29T10:59:58Z</time>
      </trkpt>
      <trkpt lat="47.32593" lon="4.98667">
        <ele>345.709</ele>
        <time>2013-03-29T11:00:09Z</time>
      </trkpt>
      <trkpt lat="47.32585" lon="4.98662">
        <ele>347.127</ele>
        <time>2013-03-29T11:00:20Z</time>
      </trkpt>
      <trkpt lat="47.3258" lon="4.98658">
        <ele>349.873</ele>
        <time>2013-03-29T11:00:31Z</time>
      </trkpt>
      <trkpt lat="47.32568" lon="4.9867">
        <ele>349.044</ele>
        <time>2013-03-29T11:00:42Z</time>
      </trkpt>
      <trkpt lat="47.32558" lon="4.98677">
        <ele>350.635</ele>
        <time>2013-03-29T11:00:53Z</time>
      </trkpt>
      <trkpt lat="47.32548" lon="4.98677">
        <ele>351.11</ele>
        <time>2013-03-29T11:01:04Z</time>
      </trkpt>
      <trkpt lat="47.32537" lon="4.98677">
        <ele>351.219</ele>
        <time>2013-03-29T11:01:15Z</time>
      </trkpt>
      <trkpt lat="47.3252" lon="4.98677">
        <ele>350.854</ele>
        <time>2013-03-29T11:01:26Z</time>
      </trkpt>
      <trkpt lat="47.3251" lon="4.98675">
        <ele>350.941</ele>
        <time>2013-03-29T11:01:37Z</time>
      </trkpt>
      <trkpt lat="47.32495" lon="4.98673">
        <ele>351.954</ele>
        <time>2013-03-29T11:01:48Z</time>
      </trkpt>
      <trkpt lat="47.32478" lon="4.9867">
        <ele>351.95</ele>
        <time>2013-03-29T11:01:59Z</time>
      </trkpt>
      <trkpt lat="47.3246" lon="4.98648">
        <ele>351.25</ele>
        <time>2013-03-29T11:02:10Z</time>
      </trkpt>
      <trkpt lat="47.3245" lon="4.98632">
        <ele>349.764</ele>
        <time>2013-03-29T11:02:21Z</time>
      </trkpt>
      <trkpt lat="47.32443" lon="4.98615">
        <ele>350.022</ele>
        <time>2013-03-29T11:02:32Z</time>
      </trkpt>
      <trkpt lat="47.32433" lon="4.98607">
        <ele>350.303</ele>
        <time>2013-03-29T11:02:43Z</time>
      </trkpt>
      <trkpt lat="47.32418" lon="4.98605">
        <ele>349.351</ele>
        <time>2013-03-29T11:02:54Z</time>
      </trkpt>
      <trkpt lat="47.32403" lon="4.986">
        <ele>347.142</ele>
        <time>2013-03-29T11:03:05Z</time>
      </trkpt>
      <trkpt lat="47.32392" lon="4.98595">
        <ele>347.258</ele>
        <time>2013-03-29T11:03:16Z</time>
      </trkpt>
      <trkpt lat="47.32387" lon="4.98585">
        <ele>347.021</ele>
        <time>2013-03-29T11:03:27Z</time>
      </trkpt>
      <trkpt lat="47.32367" lon="4.98573">
        <ele>345.912</ele>
        <time>2013-03-29T11:03:38Z</time>
      </trkpt>
      <trkpt lat="47.32348" lon="4.98555">
        <ele>344.813</ele>
        <time>2013-03-29T11:03:49Z</time>
      </trkpt>
      <trkpt lat="47.3234" lon="4.98552">
        <ele>343.077</ele>
        <time>2013-03-29T11:04:00Z</time>
      </trkpt>
      <trkpt lat="47.32332" lon="4.98567">
        <ele>341.002</ele>
        <time>2013-03-29T11:04:11Z</time>
      </trkpt>
      <trkpt lat="47.32335" lon="4.98572">
        <ele>341.429</ele>
        <time>2013-03-29T11:04:22Z</time>
      </trkpt>
      <trkpt lat="47.32332" lon="4.98578">
        <ele>341.637</ele>
        <time>2013-03-29T11:04:33Z</time>
      </trkpt>
      <trkpt lat="47.32327" lon="4.98583">
        <ele>341.539</ele>
        <time>2013-03-29T11:04:44Z</time>
      </trkpt>
      <trkpt lat="47.3232" lon="4.98603">
        <ele>341.227</ele>
        <time>2013-03-29T11:04:55Z</time>
      </trkpt>
      <trkpt lat="47.32322" lon="4.98623">
        <ele>340.502</ele>
        <time>2013-03-29T11:05:06Z</time>
      </trkpt>
      <trkpt lat="47.32317" lon="4.98648">
        <ele>340.874</ele>
        <time>2013-03-29T11:05:17Z</time>
      </trkpt>
      <trkpt lat="47.32312" lon="4.98665">
        <ele>338.081</ele>
        <time>2013-03-29T11:05:28Z</time>
      </trkpt>
      <trkpt lat="47.323" lon="4.98683">
        <ele>334.523</ele>
        <time>2013-03-29T11:05:39Z</time>
      </trkpt>
      <trkpt lat="47.32293" lon="4.98695">
        <ele>331.031</ele>
        <time>2013-03-29T11:05:50Z</time>
      </trkpt>
      <trkpt lat="47.3229" lon="4.98687">
        <ele>330.513</ele>
        <time>2013-03-29T11:06:01Z</time>
      </trkpt>
      <trkpt lat="47.32282" lon="4.98682">
        <ele>328.701</ele>
        <time>2013-03-29T11:06:12Z</time>
      </trkpt>
      <trkpt lat="47.3227" lon="4.98672">
        <ele>327.069</ele>
        <time>2013-03-29T11:06:23Z</time>
      </trkpt>
      <trkpt lat="47.32257" lon="4.9866">
        <ele>327.681</ele>
        <time>2013-03-29T11:06:34Z</time>
      </trkpt>
      <trkpt lat="47.32247" lon="4.98645">
        <ele>326.451</ele>
        <time>2013-03-29T11:06:45Z</time>
      </trkpt>
      <trkpt lat="47.32237" lon="4.9863">
        <ele>322.629</ele>
        <time>2013-03-29T11:06:56Z</time>
      </trkpt>
      <trkpt lat="47.32227" lon="4.98613">
        <ele>317.628</ele>
        <time>2013-03-29T11:07:07Z</time>
      </trkpt>
      <trkpt lat="47.3222" lon="4.98593">
        <ele>312.515</ele>
        <time>2013-03-29T11:07:18Z</time>
      </trkpt>
      <trkpt lat="47.3221" lon="4.98575">
        <ele>310.208</ele>
        <time>2013-03-29T11:07:29Z</time>
      </trkpt>
      <trkpt lat="47.32203" lon="4.98557">
        <ele>306.404</ele>
        <time>2013-03-29T11:07:40Z</time>
      </trkpt>
      <trkpt lat="47.32197" lon="4.98542">
        <ele>306.647</ele>
        <time>2013-03-29T11:07:51Z</time>
      </trkpt>
      <trkpt lat="47.32193" lon="4.98528">
        <ele>305.564</ele>
        <time>2013-03-29T11:08:02Z</time>
      </trkpt>
      <trkpt lat="47.32192" lon="4.98508">
        <ele>305.839</ele>
        <time>2013-03-29T11:08:13Z</time>
      </trkpt>
      <trkpt lat="47.32193" lon="4.98493">
        <ele>302.158</ele>
        <time>2013-03-29T11:08:24Z</time>
      </trkpt>
      <trkpt lat="47.32192" lon="4.98478">
        <ele>300.005</ele>
        <time>2013-03-29T11:08:35Z</time>
      </trkpt>
      <trkpt lat="47.3219" lon="4.98463">
        <ele>298.442</ele>
        <time>2013-03-29T11:08:46Z</time>
      </trkpt>
      <trkpt lat="47.3219" lon="4.98452">
        <ele>297.225</ele>
        <time>2013-03-29T11:08:57Z</time>
      </trkpt>
      <trkpt lat="47.32192" lon="4.98423">
        <ele>291.885</ele>
        <time>2013-03-29T11:09:08Z</time>
      </trkpt>
      <trkpt lat="47.32188" lon="4.98397">
        <ele>290.773</ele>
        <time>2013-03-29T11:09:19Z</time>
      </trkpt>
      <trkpt lat="47.32192" lon="4.98368">
        <ele>287.519</ele>
        <time>2013-03-29T11:09:30Z</time>
      </trkpt>
      <trkpt lat="47.32183" lon="4.98347">
        <ele>287.377</ele>
        <time>2013-03-29T11:09:41Z</time>
      </trkpt>
      <trkpt lat="47.32177" lon="4.98332">
        <ele>286.195</ele>
        <time>2013-03-29T11:09:52Z</time>
      </trkpt>
      <trkpt lat="47.32172" lon="4.98318">
        <ele>285.027</ele>
        <time>2013-03-29T11:10:03Z</time>
      </trkpt>
      <trkpt lat="47.32168" lon="4.98315">
        <ele>285.512</ele>
        <time>2013-03-29T11:10:14Z</time>
      </trkpt>
      <trkpt lat="47.32167" lon="4.98313">
        <ele>285.492</ele>
        <time>2013-03-29T11:10:25Z</time>
      </trkpt>
      <trkpt lat="47.32167" lon="4.98312">
        <ele>285.021</ele>
        <time>2013-03-29T11:10:36Z</time>
      </trkpt>
    </trkseg>
  </trk>
</gpx>